Moores Hill, Indiana
Current Conditions -  °F | °C
As of 5:35 PM on Sunday 23 Nov 2014 (Local Time) from KI67 Reporting Station
Overcast Overcast  
Wind Chill: 54°   Ceiling: 1100
Heat Index: 54°   Visibility: 7mi
Dew Point: 52°   Wind: 5mph
Humidity: 94%   Direction: 140°SE
Pressure: 29.52"   Gusts: NA
Location:  39.11°N, 85.09°W
Report Text: KI67 232235Z AUTO 14004KT 7SM OVC011 12/11 A2952 RMK AO1 P0012
Loading
Personal Weather Stations






























Interactive Weather Map New forecast layout! Learn more

10-Day Weather Forecast

Advertisements
Track Severe Weather on mobile